sensor_id;sensor_type;location;lat;lon;timestamp;P1;durP1;ratioP1;P2;durP2;ratioP2
3547;SDS011;1788;49.400;11.092;2023-11-22T00:01:01;6.37;;;4.60;;
3547;SDS011;1788;49.400;11.092;2023-11-22T00:03:28;7.40;;;4.83;;
3547;SDS011;1788;49.400;11.092;2023-11-22T00:05:55;9.00;;;5.10;;
3547;SDS011;1788;49.400;11.092;2023-11-22T00:08:21;5.97;;;4.50;;
3547;SDS011;1788;49.400;11.092;2023-11-22T00:10:48;8.20;;;5.37;;
3547;SDS011;1788;49.400;11.092;2023-11-22T00:13:14;7.37;;;5.07;;
3547;SDS011;1788;49.400;11.092;2023-11-22T00:15:41;8.83;;;5.47;;
3547;SDS011;1788;49.400;11.092;2023-11-22T00:18:09;8.83;;;5.17;;
3547;SDS011;1788;49.400;11.092;2023-11-22T00:20:36;8.50;;;5.00;;
3547;SDS011;1788;49.400;11.092;2023-11-22T00:23:03;7.43;;;4.60;;
3547;SDS011;1788;49.400;11.092;2023-11-22T00:25:30;5.20;;;4.33;;
3547;SDS011;1788;49.400;11.092;2023-11-22T00:27:57;8.80;;;4.80;;
3547;SDS011;1788;49.400;11.092;2023-11-22T00:30:24;4.83;;;4.40;;
3547;SDS011;1788;49.400;11.092;2023-11-22T00:32:50;6.53;;;4.40;;
3547;SDS011;1788;49.400;11.092;2023-11-22T00:35:17;4.13;;;3.70;;
3547;SDS011;1788;49.400;11.092;2023-11-22T00:37:44;3.80;;;3.63;;
3547;SDS011;1788;49.400;11.092;2023-11-22T00:40:10;6.30;;;4.13;;
3547;SDS011;1788;49.400;11.092;2023-11-22T00:42:37;5.13;;;3.63;;
3547;SDS011;1788;49.400;11.092;2023-11-22T00:45:03;4.43;;;3.80;;
3547;SDS011;1788;49.400;11.092;2023-11-22T00:47:31;5.43;;;4.07;;
3547;SDS011;1788;49.400;11.092;2023-11-22T00:49:57;4.47;;;3.57;;
3547;SDS011;1788;49.400;11.092;2023-11-22T00:52:24;6.13;;;4.20;;
3547;SDS011;1788;49.400;11.092;2023-11-22T00:54:51;7.17;;;4.13;;
3547;SDS011;1788;49.400;11.092;2023-11-22T00:57:17;6.43;;;4.57;;
3547;SDS011;1788;49.400;11.092;2023-11-22T00:59:44;8.23;;;5.83;;
3547;SDS011;1788;49.400;11.092;2023-11-22T01:02:10;8.57;;;5.07;;
3547;SDS011;1788;49.400;11.092;2023-11-22T01:04:37;9.17;;;4.90;;
3547;SDS011;1788;49.400;11.092;2023-11-22T01:07:04;7.03;;;5.37;;
3547;SDS011;1788;49.400;11.092;2023-11-22T01:09:31;5.10;;;4.33;;
3547;SDS011;1788;49.400;11.092;2023-11-22T01:11:58;7.80;;;5.23;;
3547;SDS011;1788;49.400;11.092;2023-11-22T01:14:25;6.17;;;5.53;;
3547;SDS011;1788;49.400;11.092;2023-11-22T01:16:51;7.33;;;5.00;;
3547;SDS011;1788;49.400;11.092;2023-11-22T01:19:18;4.70;;;4.40;;
3547;SDS011;1788;49.400;11.092;2023-11-22T01:21:44;5.20;;;4.07;;
3547;SDS011;1788;49.400;11.092;2023-11-22T01:24:11;4.70;;;4.20;;
3547;SDS011;1788;49.400;11.092;2023-11-22T01:26:38;6.50;;;4.40;;
3547;SDS011;1788;49.400;11.092;2023-11-22T01:29:04;5.80;;;4.30;;
3547;SDS011;1788;49.400;11.092;2023-11-22T01:31:31;5.37;;;4.03;;
3547;SDS011;1788;49.400;11.092;2023-11-22T01:33:58;4.60;;;4.27;;
3547;SDS011;1788;49.400;11.092;2023-11-22T01:36:24;4.77;;;4.00;;
3547;SDS011;1788;49.400;11.092;2023-11-22T01:38:51;4.20;;;3.80;;
3547;SDS011;1788;49.400;11.092;2023-11-22T01:41:18;5.87;;;3.63;;
3547;SDS011;1788;49.400;11.092;2023-11-22T01:43:45;4.40;;;3.57;;
3547;SDS011;1788;49.400;11.092;2023-11-22T01:46:17;6.17;;;4.63;;
3547;SDS011;1788;49.400;11.092;2023-11-22T01:48:38;6.63;;;4.67;;
3547;SDS011;1788;49.400;11.092;2023-11-22T01:51:04;6.60;;;4.30;;
3547;SDS011;1788;49.400;11.092;2023-11-22T01:53:31;5.90;;;4.10;;
3547;SDS011;1788;49.400;11.092;2023-11-22T01:55:58;8.63;;;4.70;;
3547;SDS011;1788;49.400;11.092;2023-11-22T01:58:25;6.23;;;4.60;;
3547;SDS011;1788;49.400;11.092;2023-11-22T02:00:52;5.80;;;4.37;;
3547;SDS011;1788;49.400;11.092;2023-11-22T02:03:18;6.83;;;4.60;;
3547;SDS011;1788;49.400;11.092;2023-11-22T02:05:45;8.00;;;4.93;;
3547;SDS011;1788;49.400;11.092;2023-11-22T02:08:12;7.83;;;5.03;;
3547;SDS011;1788;49.400;11.092;2023-11-22T02:10:38;8.07;;;4.90;;
3547;SDS011;1788;49.400;11.092;2023-11-22T02:15:31;8.70;;;5.40;;
3547;SDS011;1788;49.400;11.092;2023-11-22T02:17:58;5.70;;;4.80;;
3547;SDS011;1788;49.400;11.092;2023-11-22T02:20:24;6.73;;;4.80;;
3547;SDS011;1788;49.400;11.092;2023-11-22T02:22:51;7.60;;;5.23;;
3547;SDS011;1788;49.400;11.092;2023-11-22T02:25:18;7.87;;;5.10;;
3547;SDS011;1788;49.400;11.092;2023-11-22T02:27:45;9.67;;;5.27;;
3547;SDS011;1788;49.400;11.092;2023-11-22T02:30:12;6.37;;;5.20;;
3547;SDS011;1788;49.400;11.092;2023-11-22T02:32:38;9.37;;;5.33;;
3547;SDS011;1788;49.400;11.092;2023-11-22T02:35:05;7.70;;;5.10;;
3547;SDS011;1788;49.400;11.092;2023-11-22T02:37:31;8.70;;;4.70;;
3547;SDS011;1788;49.400;11.092;2023-11-22T02:42:25;5.93;;;4.40;;
3547;SDS011;1788;49.400;11.092;2023-11-22T02:44:52;8.70;;;5.37;;
3547;SDS011;1788;49.400;11.092;2023-11-22T02:47:19;6.93;;;5.07;;
3547;SDS011;1788;49.400;11.092;2023-11-22T02:49:45;6.23;;;4.87;;
3547;SDS011;1788;49.400;11.092;2023-11-22T02:52:12;7.33;;;5.00;;
3547;SDS011;1788;49.400;11.092;2023-11-22T02:54:40;9.93;;;5.20;;
3547;SDS011;1788;49.400;11.092;2023-11-22T02:57:05;7.90;;;5.63;;
3547;SDS011;1788;49.400;11.092;2023-11-22T02:59:32;6.30;;;4.60;;
3547;SDS011;1788;49.400;11.092;2023-11-22T03:01:58;6.30;;;4.70;;
3547;SDS011;1788;49.400;11.092;2023-11-22T03:04:26;6.73;;;4.50;;
3547;SDS011;1788;49.400;11.092;2023-11-22T03:06:52;8.93;;;4.60;;
3547;SDS011;1788;49.400;11.092;2023-11-22T03:09:19;5.67;;;4.53;;
3547;SDS011;1788;49.400;11.092;2023-11-22T03:11:46;6.77;;;4.77;;
3547;SDS011;1788;49.400;11.092;2023-11-22T03:14:12;7.60;;;4.60;;
3547;SDS011;1788;49.400;11.092;2023-11-22T03:16:39;8.10;;;5.27;;
3547;SDS011;1788;49.400;11.092;2023-11-22T03:19:05;5.73;;;4.73;;
3547;SDS011;1788;49.400;11.092;2023-11-22T03:21:33;6.03;;;4.57;;
3547;SDS011;1788;49.400;11.092;2023-11-22T03:23:59;5.77;;;4.93;;
3547;SDS011;1788;49.400;11.092;2023-11-22T03:26:26;6.53;;;4.87;;
3547;SDS011;1788;49.400;11.092;2023-11-22T03:28:53;7.00;;;5.30;;
3547;SDS011;1788;49.400;11.092;2023-11-22T03:31:19;7.50;;;5.40;;
3547;SDS011;1788;49.400;11.092;2023-11-22T03:33:46;8.70;;;5.27;;
3547;SDS011;1788;49.400;11.092;2023-11-22T03:36:12;8.07;;;5.20;;
3547;SDS011;1788;49.400;11.092;2023-11-22T03:38:39;5.23;;;4.97;;
3547;SDS011;1788;49.400;11.092;2023-11-22T03:41:06;6.63;;;5.20;;
3547;SDS011;1788;49.400;11.092;2023-11-22T03:43:33;6.83;;;4.60;;
3547;SDS011;1788;49.400;11.092;2023-11-22T03:46:00;6.93;;;4.60;;
3547;SDS011;1788;49.400;11.092;2023-11-22T03:48:26;6.47;;;5.03;;
3547;SDS011;1788;49.400;11.092;2023-11-22T03:50:53;7.77;;;5.43;;
3547;SDS011;1788;49.400;11.092;2023-11-22T03:53:19;6.47;;;4.77;;
3547;SDS011;1788;49.400;11.092;2023-11-22T03:55:47;6.67;;;5.20;;
3547;SDS011;1788;49.400;11.092;2023-11-22T03:58:13;5.07;;;4.77;;
3547;SDS011;1788;49.400;11.092;2023-11-22T04:00:40;6.53;;;4.77;;
3547;SDS011;1788;49.400;11.092;2023-11-22T04:03:07;8.23;;;5.13;;
3547;SDS011;1788;49.400;11.092;2023-11-22T04:05:33;6.07;;;4.60;;
3547;SDS011;1788;49.400;11.092;2023-11-22T04:08:00;6.97;;;4.17;;
3547;SDS011;1788;49.400;11.092;2023-11-22T04:10:26;8.33;;;5.07;;
3547;SDS011;1788;49.400;11.092;2023-11-22T04:12:53;6.23;;;4.70;;
3547;SDS011;1788;49.400;11.092;2023-11-22T04:15:20;8.37;;;5.60;;
3547;SDS011;1788;49.400;11.092;2023-11-22T04:17:47;5.37;;;4.43;;
3547;SDS011;1788;49.400;11.092;2023-11-22T04:20:13;7.10;;;5.10;;
3547;SDS011;1788;49.400;11.092;2023-11-22T04:22:40;7.73;;;5.27;;
3547;SDS011;1788;49.400;11.092;2023-11-22T04:25:07;7.83;;;4.53;;
3547;SDS011;1788;49.400;11.092;2023-11-22T04:27:33;9.20;;;4.93;;
3547;SDS011;1788;49.400;11.092;2023-11-22T04:30:00;5.13;;;3.77;;
3547;SDS011;1788;49.400;11.092;2023-11-22T04:32:26;7.50;;;4.40;;
3547;SDS011;1788;49.400;11.092;2023-11-22T04:34:54;4.97;;;4.17;;
3547;SDS011;1788;49.400;11.092;2023-11-22T04:37:20;5.70;;;5.10;;
3547;SDS011;1788;49.400;11.092;2023-11-22T04:39:47;6.07;;;4.53;;
3547;SDS011;1788;49.400;11.092;2023-11-22T04:42:14;5.87;;;4.40;;
3547;SDS011;1788;49.400;11.092;2023-11-22T04:44:40;6.67;;;4.20;;
3547;SDS011;1788;49.400;11.092;2023-11-22T04:47:07;6.57;;;4.10;;
3547;SDS011;1788;49.400;11.092;2023-11-22T04:49:33;7.50;;;4.70;;
3547;SDS011;1788;49.400;11.092;2023-11-22T04:52:00;5.57;;;3.70;;
3547;SDS011;1788;49.400;11.092;2023-11-22T04:54:27;5.70;;;4.40;;
3547;SDS011;1788;49.400;11.092;2023-11-22T04:56:53;8.60;;;5.03;;
3547;SDS011;1788;49.400;11.092;2023-11-22T04:59:20;7.27;;;4.20;;
3547;SDS011;1788;49.400;11.092;2023-11-22T05:01:48;7.23;;;4.40;;
3547;SDS011;1788;49.400;11.092;2023-11-22T05:04:15;10.40;;;5.97;;
3547;SDS011;1788;49.400;11.092;2023-11-22T05:06:41;6.93;;;4.73;;
3547;SDS011;1788;49.400;11.092;2023-11-22T05:09:08;6.30;;;4.73;;
3547;SDS011;1788;49.400;11.092;2023-11-22T05:11:34;7.27;;;5.07;;
3547;SDS011;1788;49.400;11.092;2023-11-22T05:14:01;8.33;;;5.13;;
3547;SDS011;1788;49.400;11.092;2023-11-22T05:16:28;6.80;;;5.17;;
3547;SDS011;1788;49.400;11.092;2023-11-22T05:18:55;7.50;;;6.07;;
3547;SDS011;1788;49.400;11.092;2023-11-22T05:21:22;6.63;;;5.03;;
3547;SDS011;1788;49.400;11.092;2023-11-22T05:23:48;5.00;;;4.70;;
3547;SDS011;1788;49.400;11.092;2023-11-22T05:26:16;6.43;;;5.40;;
3547;SDS011;1788;49.400;11.092;2023-11-22T05:28:42;9.10;;;5.73;;
3547;SDS011;1788;49.400;11.092;2023-11-22T05:31:09;9.63;;;6.30;;
3547;SDS011;1788;49.400;11.092;2023-11-22T05:33:35;8.53;;;5.53;;
3547;SDS011;1788;49.400;11.092;2023-11-22T05:36:02;9.83;;;5.97;;
3547;SDS011;1788;49.400;11.092;2023-11-22T05:38:29;7.33;;;5.10;;
3547;SDS011;1788;49.400;11.092;2023-11-22T05:40:55;7.67;;;5.70;;
3547;SDS011;1788;49.400;11.092;2023-11-22T05:43:22;7.40;;;5.77;;
3547;SDS011;1788;49.400;11.092;2023-11-22T05:45:48;10.27;;;6.27;;
3547;SDS011;1788;49.400;11.092;2023-11-22T05:48:15;8.73;;;5.90;;
3547;SDS011;1788;49.400;11.092;2023-11-22T05:50:42;11.73;;;6.03;;
3547;SDS011;1788;49.400;11.092;2023-11-22T05:53:09;9.90;;;6.13;;
3547;SDS011;1788;49.400;11.092;2023-11-22T05:55:36;8.77;;;6.37;;
3547;SDS011;1788;49.400;11.092;2023-11-22T05:58:02;12.83;;;6.33;;
3547;SDS011;1788;49.400;11.092;2023-11-22T06:00:29;9.33;;;6.53;;
3547;SDS011;1788;49.400;11.092;2023-11-22T06:02:55;8.80;;;6.27;;
3547;SDS011;1788;49.400;11.092;2023-11-22T06:05:23;11.10;;;6.57;;
3547;SDS011;1788;49.400;11.092;2023-11-22T06:07:49;11.90;;;7.10;;
3547;SDS011;1788;49.400;11.092;2023-11-22T06:10:16;9.73;;;6.07;;
3547;SDS011;1788;49.400;11.092;2023-11-22T06:12:43;8.97;;;5.90;;
3547;SDS011;1788;49.400;11.092;2023-11-22T06:15:09;10.30;;;7.67;;
3547;SDS011;1788;49.400;11.092;2023-11-22T06:17:36;11.70;;;7.43;;
3547;SDS011;1788;49.400;11.092;2023-11-22T06:20:03;12.20;;;7.07;;
3547;SDS011;1788;49.400;11.092;2023-11-22T06:22:29;12.70;;;6.80;;
3547;SDS011;1788;49.400;11.092;2023-11-22T06:24:56;8.37;;;6.23;;
3547;SDS011;1788;49.400;11.092;2023-11-22T06:27:23;9.67;;;6.40;;
3547;SDS011;1788;49.400;11.092;2023-11-22T06:29:50;11.23;;;6.90;;
3547;SDS011;1788;49.400;11.092;2023-11-22T06:32:16;13.73;;;7.40;;
3547;SDS011;1788;49.400;11.092;2023-11-22T06:34:43;10.20;;;6.10;;
3547;SDS011;1788;49.400;11.092;2023-11-22T06:37:09;11.37;;;6.50;;
3547;SDS011;1788;49.400;11.092;2023-11-22T06:39:37;10.73;;;7.33;;
3547;SDS011;1788;49.400;11.092;2023-11-22T06:42:06;12.13;;;7.17;;
3547;SDS011;1788;49.400;11.092;2023-11-22T06:44:33;10.77;;;6.50;;
3547;SDS011;1788;49.400;11.092;2023-11-22T06:46:59;14.40;;;7.43;;
3547;SDS011;1788;49.400;11.092;2023-11-22T06:49:26;11.60;;;7.60;;
3547;SDS011;1788;49.400;11.092;2023-11-22T06:51:53;13.77;;;7.70;;
3547;SDS011;1788;49.400;11.092;2023-11-22T06:54:20;11.73;;;7.40;;
3547;SDS011;1788;49.400;11.092;2023-11-22T06:56:47;12.50;;;8.57;;
3547;SDS011;1788;49.400;11.092;2023-11-22T06:59:14;13.87;;;7.80;;
3547;SDS011;1788;49.400;11.092;2023-11-22T07:01:41;11.83;;;7.93;;
3547;SDS011;1788;49.400;11.092;2023-11-22T07:04:07;15.40;;;8.73;;
3547;SDS011;1788;49.400;11.092;2023-11-22T07:06:34;16.03;;;8.63;;
3547;SDS011;1788;49.400;11.092;2023-11-22T07:09:00;11.60;;;7.77;;
3547;SDS011;1788;49.400;11.092;2023-11-22T07:11:27;10.33;;;7.03;;
3547;SDS011;1788;49.400;11.092;2023-11-22T07:13:54;10.27;;;6.93;;
3547;SDS011;1788;49.400;11.092;2023-11-22T07:16:20;9.93;;;6.70;;
3547;SDS011;1788;49.400;11.092;2023-11-22T07:18:47;8.93;;;6.50;;
3547;SDS011;1788;49.400;11.092;2023-11-22T07:21:13;10.23;;;6.83;;
3547;SDS011;1788;49.400;11.092;2023-11-22T07:23:40;10.47;;;7.40;;
3547;SDS011;1788;49.400;11.092;2023-11-22T07:26:07;9.10;;;7.00;;
3547;SDS011;1788;49.400;11.092;2023-11-22T07:28:33;12.90;;;7.47;;
3547;SDS011;1788;49.400;11.092;2023-11-22T07:31:00;9.57;;;6.47;;
3547;SDS011;1788;49.400;11.092;2023-11-22T07:33:26;10.80;;;6.47;;
3547;SDS011;1788;49.400;11.092;2023-11-22T07:35:54;7.77;;;7.07;;
3547;SDS011;1788;49.400;11.092;2023-11-22T07:38:20;11.50;;;7.17;;
3547;SDS011;1788;49.400;11.092;2023-11-22T07:40:47;11.97;;;7.30;;
3547;SDS011;1788;49.400;11.092;2023-11-22T07:43:14;12.60;;;7.50;;
3547;SDS011;1788;49.400;11.092;2023-11-22T07:45:40;12.87;;;7.20;;
3547;SDS011;1788;49.400;11.092;2023-11-22T07:48:07;10.60;;;6.67;;
3547;SDS011;1788;49.400;11.092;2023-11-22T07:50:33;9.10;;;6.47;;
3547;SDS011;1788;49.400;11.092;2023-11-22T07:53:01;6.63;;;5.70;;
3547;SDS011;1788;49.400;11.092;2023-11-22T07:55:27;12.40;;;7.57;;
3547;SDS011;1788;49.400;11.092;2023-11-22T07:57:54;11.03;;;7.10;;
3547;SDS011;1788;49.400;11.092;2023-11-22T08:00:21;10.00;;;5.93;;
3547;SDS011;1788;49.400;11.092;2023-11-22T08:02:48;9.93;;;6.07;;
3547;SDS011;1788;49.400;11.092;2023-11-22T08:05:14;13.20;;;7.73;;
3547;SDS011;1788;49.400;11.092;2023-11-22T08:07:41;15.50;;;8.03;;
3547;SDS011;1788;49.400;11.092;2023-11-22T08:10:08;12.27;;;7.33;;
3547;SDS011;1788;49.400;11.092;2023-11-22T08:12:34;15.47;;;8.60;;
3547;SDS011;1788;49.400;11.092;2023-11-22T08:15:01;13.03;;;8.20;;
3547;SDS011;1788;49.400;11.092;2023-11-22T08:17:27;10.63;;;7.33;;
3547;SDS011;1788;49.400;11.092;2023-11-22T08:19:54;12.33;;;7.47;;
3547;SDS011;1788;49.400;11.092;2023-11-22T08:22:21;10.07;;;7.17;;
3547;SDS011;1788;49.400;11.092;2023-11-22T08:24:47;16.07;;;9.17;;
3547;SDS011;1788;49.400;11.092;2023-11-22T08:27:14;16.23;;;8.20;;
3547;SDS011;1788;49.400;11.092;2023-11-22T08:29:41;14.37;;;8.80;;
3547;SDS011;1788;49.400;11.092;2023-11-22T08:32:09;16.17;;;9.00;;
3547;SDS011;1788;49.400;11.092;2023-11-22T08:34:36;17.90;;;9.60;;
3547;SDS011;1788;49.400;11.092;2023-11-22T08:37:03;16.33;;;8.80;;
3547;SDS011;1788;49.400;11.092;2023-11-22T08:39:30;15.37;;;9.57;;
3547;SDS011;1788;49.400;11.092;2023-11-22T08:41:57;17.23;;;9.40;;
3547;SDS011;1788;49.400;11.092;2023-11-22T08:44:23;13.63;;;8.70;;
3547;SDS011;1788;49.400;11.092;2023-11-22T08:46:50;11.97;;;8.40;;
3547;SDS011;1788;49.400;11.092;2023-11-22T08:49:17;18.67;;;8.67;;
3547;SDS011;1788;49.400;11.092;2023-11-22T08:51:44;14.40;;;9.80;;
3547;SDS011;1788;49.400;11.092;2023-11-22T08:54:11;12.50;;;8.33;;
3547;SDS011;1788;49.400;11.092;2023-11-22T08:56:37;15.57;;;8.90;;
3547;SDS011;1788;49.400;11.092;2023-11-22T08:59:07;15.27;;;8.47;;
3547;SDS011;1788;49.400;11.092;2023-11-22T09:01:33;14.63;;;8.63;;
3547;SDS011;1788;49.400;11.092;2023-11-22T09:04:00;15.30;;;8.93;;
3547;SDS011;1788;49.400;11.092;2023-11-22T09:06:26;16.23;;;9.10;;
3547;SDS011;1788;49.400;11.092;2023-11-22T09:08:53;16.03;;;9.37;;
3547;SDS011;1788;49.400;11.092;2023-11-22T09:11:20;15.13;;;8.87;;
3547;SDS011;1788;49.400;11.092;2023-11-22T09:13:46;17.27;;;8.93;;
3547;SDS011;1788;49.400;11.092;2023-11-22T09:16:14;15.33;;;8.83;;
3547;SDS011;1788;49.400;11.092;2023-11-22T09:18:41;18.83;;;9.70;;
3547;SDS011;1788;49.400;11.092;2023-11-22T09:21:08;16.93;;;8.80;;
3547;SDS011;1788;49.400;11.092;2023-11-22T09:23:34;17.07;;;10.60;;
3547;SDS011;1788;49.400;11.092;2023-11-22T09:26:01;23.57;;;11.50;;
3547;SDS011;1788;49.400;11.092;2023-11-22T09:28:29;19.03;;;10.20;;
3547;SDS011;1788;49.400;11.092;2023-11-22T09:30:55;19.90;;;9.17;;
3547;SDS011;1788;49.400;11.092;2023-11-22T09:33:23;13.80;;;8.07;;
3547;SDS011;1788;49.400;11.092;2023-11-22T09:35:50;14.93;;;8.70;;
3547;SDS011;1788;49.400;11.092;2023-11-22T09:38:17;14.50;;;8.40;;
3547;SDS011;1788;49.400;11.092;2023-11-22T09:43:10;15.83;;;8.43;;
3547;SDS011;1788;49.400;11.092;2023-11-22T09:45:37;15.50;;;9.13;;
3547;SDS011;1788;49.400;11.092;2023-11-22T09:53:00;15.80;;;9.07;;
3547;SDS011;1788;49.400;11.092;2023-11-22T09:55:26;14.83;;;8.77;;
3547;SDS011;1788;49.400;11.092;2023-11-22T09:57:52;14.67;;;9.23;;
3547;SDS011;1788;49.400;11.092;2023-11-22T10:00:18;13.97;;;8.47;;
3547;SDS011;1788;49.400;11.092;2023-11-22T10:02:45;17.53;;;9.73;;
3547;SDS011;1788;49.400;11.092;2023-11-22T10:05:12;16.27;;;9.37;;
3547;SDS011;1788;49.400;11.092;2023-11-22T10:07:39;16.27;;;9.77;;
3547;SDS011;1788;49.400;11.092;2023-11-22T10:10:05;16.43;;;9.97;;
3547;SDS011;1788;49.400;11.092;2023-11-22T10:12:31;17.00;;;10.13;;
3547;SDS011;1788;49.400;11.092;2023-11-22T10:17:25;12.77;;;8.33;;
3547;SDS011;1788;49.400;11.092;2023-11-22T10:19:52;12.87;;;8.87;;
3547;SDS011;1788;49.400;11.092;2023-11-22T10:22:20;13.83;;;8.50;;
3547;SDS011;1788;49.400;11.092;2023-11-22T10:24:47;18.50;;;8.77;;
3547;SDS011;1788;49.400;11.092;2023-11-22T10:27:13;16.03;;;9.30;;
3547;SDS011;1788;49.400;11.092;2023-11-22T10:29:40;13.83;;;8.80;;
3547;SDS011;1788;49.400;11.092;2023-11-22T10:32:07;11.80;;;8.00;;
3547;SDS011;1788;49.400;11.092;2023-11-22T10:34:33;15.47;;;8.17;;
3547;SDS011;1788;49.400;11.092;2023-11-22T10:37:01;16.63;;;9.00;;
3547;SDS011;1788;49.400;11.092;2023-11-22T10:39:27;17.13;;;8.90;;
3547;SDS011;1788;49.400;11.092;2023-11-22T10:41:53;12.57;;;8.17;;
3547;SDS011;1788;49.400;11.092;2023-11-22T10:44:21;11.37;;;8.30;;
3547;SDS011;1788;49.400;11.092;2023-11-22T10:46:47;16.33;;;8.83;;
3547;SDS011;1788;49.400;11.092;2023-11-22T10:49:14;15.47;;;8.80;;
3547;SDS011;1788;49.400;11.092;2023-11-22T10:51:40;14.73;;;8.63;;
3547;SDS011;1788;49.400;11.092;2023-11-22T10:54:07;11.93;;;8.13;;
3547;SDS011;1788;49.400;11.092;2023-11-22T10:59:01;16.33;;;8.77;;
3547;SDS011;1788;49.400;11.092;2023-11-22T11:01:28;13.10;;;8.93;;
3547;SDS011;1788;49.400;11.092;2023-11-22T11:03:56;14.50;;;9.03;;
3547;SDS011;1788;49.400;11.092;2023-11-22T11:06:24;17.77;;;8.37;;
3547;SDS011;1788;49.400;11.092;2023-11-22T11:08:49;16.53;;;8.50;;
3547;SDS011;1788;49.400;11.092;2023-11-22T11:11:16;12.37;;;7.60;;
3547;SDS011;1788;49.400;11.092;2023-11-22T11:13:42;13.47;;;8.23;;
3547;SDS011;1788;49.400;11.092;2023-11-22T11:16:09;12.73;;;7.97;;
3547;SDS011;1788;49.400;11.092;2023-11-22T11:18:36;14.73;;;8.63;;
3547;SDS011;1788;49.400;11.092;2023-11-22T11:21:07;8.57;;;7.30;;
3547;SDS011;1788;49.400;11.092;2023-11-22T11:23:30;11.43;;;6.63;;
3547;SDS011;1788;49.400;11.092;2023-11-22T11:25:58;11.83;;;7.77;;
3547;SDS011;1788;49.400;11.092;2023-11-22T11:28:24;18.33;;;8.33;;
3547;SDS011;1788;49.400;11.092;2023-11-22T11:30:50;13.27;;;8.53;;
3547;SDS011;1788;49.400;11.092;2023-11-22T11:33:18;12.37;;;7.60;;
3547;SDS011;1788;49.400;11.092;2023-11-22T11:35:46;10.80;;;7.13;;
3547;SDS011;1788;49.400;11.092;2023-11-22T11:38:11;11.87;;;7.87;;
3547;SDS011;1788;49.400;11.092;2023-11-22T11:40:37;14.13;;;8.27;;
3547;SDS011;1788;49.400;11.092;2023-11-22T11:43:04;12.57;;;6.93;;
3547;SDS011;1788;49.400;11.092;2023-11-22T11:45:35;15.43;;;8.03;;
3547;SDS011;1788;49.400;11.092;2023-11-22T11:47:58;15.13;;;8.27;;
3547;SDS011;1788;49.400;11.092;2023-11-22T11:50:25;12.23;;;7.70;;
3547;SDS011;1788;49.400;11.092;2023-11-22T11:52:52;14.00;;;7.47;;
3547;SDS011;1788;49.400;11.092;2023-11-22T11:55:18;12.20;;;8.00;;
3547;SDS011;1788;49.400;11.092;2023-11-22T11:57:45;11.87;;;8.53;;
3547;SDS011;1788;49.400;11.092;2023-11-22T12:02:40;13.20;;;6.93;;
3547;SDS011;1788;49.400;11.092;2023-11-22T12:05:06;13.10;;;6.43;;
3547;SDS011;1788;49.400;11.092;2023-11-22T12:07:32;15.10;;;7.50;;
3547;SDS011;1788;49.400;11.092;2023-11-22T12:09:59;9.37;;;5.47;;
3547;SDS011;1788;49.400;11.092;2023-11-22T12:12:26;14.63;;;8.50;;
3547;SDS011;1788;49.400;11.092;2023-11-22T12:14:53;9.80;;;6.37;;
3547;SDS011;1788;49.400;11.092;2023-11-22T12:17:20;12.83;;;7.97;;
3547;SDS011;1788;49.400;11.092;2023-11-22T12:19:46;15.60;;;9.00;;
3547;SDS011;1788;49.400;11.092;2023-11-22T12:22:13;13.13;;;6.93;;
3547;SDS011;1788;49.400;11.092;2023-11-22T12:24:39;10.47;;;7.20;;
3547;SDS011;1788;49.400;11.092;2023-11-22T12:27:08;12.57;;;7.47;;
3547;SDS011;1788;49.400;11.092;2023-11-22T12:29:35;11.90;;;6.83;;
3547;SDS011;1788;49.400;11.092;2023-11-22T12:31:59;11.97;;;6.80;;
3547;SDS011;1788;49.400;11.092;2023-11-22T12:34:26;12.13;;;6.90;;
3547;SDS011;1788;49.400;11.092;2023-11-22T12:36:53;14.90;;;7.87;;
3547;SDS011;1788;49.400;11.092;2023-11-22T12:39:19;13.40;;;7.63;;
3547;SDS011;1788;49.400;11.092;2023-11-22T12:44:13;15.03;;;7.57;;
3547;SDS011;1788;49.400;11.092;2023-11-22T12:49:06;12.70;;;6.83;;
3547;SDS011;1788;49.400;11.092;2023-11-22T12:51:33;10.83;;;6.60;;
3547;SDS011;1788;49.400;11.092;2023-11-22T12:54:00;12.10;;;7.10;;
3547;SDS011;1788;49.400;11.092;2023-11-22T12:56:27;12.00;;;7.47;;
3547;SDS011;1788;49.400;11.092;2023-11-22T12:58:54;12.93;;;7.97;;
3547;SDS011;1788;49.400;11.092;2023-11-22T13:01:20;10.43;;;7.30;;
3547;SDS011;1788;49.400;11.092;2023-11-22T13:03:47;12.07;;;7.20;;
3547;SDS011;1788;49.400;11.092;2023-11-22T13:06:14;10.40;;;6.80;;
3547;SDS011;1788;49.400;11.092;2023-11-22T13:08:41;12.37;;;7.83;;
3547;SDS011;1788;49.400;11.092;2023-11-22T13:11:08;10.07;;;6.67;;
3547;SDS011;1788;49.400;11.092;2023-11-22T13:13:35;12.93;;;7.10;;
3547;SDS011;1788;49.400;11.092;2023-11-22T13:16:03;7.97;;;6.70;;
3547;SDS011;1788;49.400;11.092;2023-11-22T13:18:29;11.23;;;6.60;;
3547;SDS011;1788;49.400;11.092;2023-11-22T13:20:56;10.73;;;7.07;;
3547;SDS011;1788;49.400;11.092;2023-11-22T13:23:23;11.87;;;6.63;;
3547;SDS011;1788;49.400;11.092;2023-11-22T13:25:50;10.97;;;7.10;;
3547;SDS011;1788;49.400;11.092;2023-11-22T13:28:17;11.80;;;7.60;;
3547;SDS011;1788;49.400;11.092;2023-11-22T13:30:43;10.10;;;7.43;;
3547;SDS011;1788;49.400;11.092;2023-11-22T13:33:10;13.27;;;7.43;;
3547;SDS011;1788;49.400;11.092;2023-11-22T13:35:37;14.30;;;7.60;;
3547;SDS011;1788;49.400;11.092;2023-11-22T13:38:04;11.17;;;7.20;;
3547;SDS011;1788;49.400;11.092;2023-11-22T13:40:31;11.47;;;6.90;;
3547;SDS011;1788;49.400;11.092;2023-11-22T13:42:58;13.23;;;7.57;;
3547;SDS011;1788;49.400;11.092;2023-11-22T13:45:24;12.80;;;8.70;;
3547;SDS011;1788;49.400;11.092;2023-11-22T13:47:51;14.67;;;8.73;;
3547;SDS011;1788;49.400;11.092;2023-11-22T13:50:17;15.37;;;9.10;;
3547;SDS011;1788;49.400;11.092;2023-11-22T13:55:10;12.40;;;7.50;;
3547;SDS011;1788;49.400;11.092;2023-11-22T13:57:37;13.70;;;8.47;;
3547;SDS011;1788;49.400;11.092;2023-11-22T14:00:04;12.53;;;7.30;;
3547;SDS011;1788;49.400;11.092;2023-11-22T14:02:30;14.03;;;7.80;;
3547;SDS011;1788;49.400;11.092;2023-11-22T14:04:57;13.90;;;7.73;;
3547;SDS011;1788;49.400;11.092;2023-11-22T14:07:24;12.23;;;7.67;;
3547;SDS011;1788;49.400;11.092;2023-11-22T14:09:51;16.57;;;8.17;;
3547;SDS011;1788;49.400;11.092;2023-11-22T14:12:18;14.20;;;8.27;;
3547;SDS011;1788;49.400;11.092;2023-11-22T14:14:44;12.00;;;7.40;;
3547;SDS011;1788;49.400;11.092;2023-11-22T14:17:11;12.73;;;8.67;;
3547;SDS011;1788;49.400;11.092;2023-11-22T14:19:37;12.57;;;7.90;;
3547;SDS011;1788;49.400;11.092;2023-11-22T14:22:04;15.73;;;9.33;;
3547;SDS011;1788;49.400;11.092;2023-11-22T14:24:31;12.07;;;8.77;;
3547;SDS011;1788;49.400;11.092;2023-11-22T14:26:57;15.37;;;8.77;;
3547;SDS011;1788;49.400;11.092;2023-11-22T14:29:24;11.27;;;9.00;;
3547;SDS011;1788;49.400;11.092;2023-11-22T14:31:50;19.90;;;9.70;;
3547;SDS011;1788;49.400;11.092;2023-11-22T14:34:17;15.27;;;8.87;;
3547;SDS011;1788;49.400;11.092;2023-11-22T14:36:44;17.40;;;8.63;;
3547;SDS011;1788;49.400;11.092;2023-11-22T14:39:11;15.90;;;9.50;;
3547;SDS011;1788;49.400;11.092;2023-11-22T14:41:38;18.00;;;9.60;;
3547;SDS011;1788;49.400;11.092;2023-11-22T14:44:04;12.63;;;8.23;;
3547;SDS011;1788;49.400;11.092;2023-11-22T14:46:31;14.93;;;8.80;;
3547;SDS011;1788;49.400;11.092;2023-11-22T14:48:58;13.63;;;9.13;;
3547;SDS011;1788;49.400;11.092;2023-11-22T14:51:25;16.10;;;8.90;;
3547;SDS011;1788;49.400;11.092;2023-11-22T14:53:51;16.43;;;8.60;;
3547;SDS011;1788;49.400;11.092;2023-11-22T14:56:19;13.17;;;8.53;;
3547;SDS011;1788;49.400;11.092;2023-11-22T14:58:45;11.63;;;7.83;;
3547;SDS011;1788;49.400;11.092;2023-11-22T15:01:12;12.53;;;7.63;;
3547;SDS011;1788;49.400;11.092;2023-11-22T15:03:39;14.47;;;8.47;;
3547;SDS011;1788;49.400;11.092;2023-11-22T15:06:05;12.87;;;8.27;;
3547;SDS011;1788;49.400;11.092;2023-11-22T15:08:32;13.17;;;8.47;;
3547;SDS011;1788;49.400;11.092;2023-11-22T15:10:58;18.47;;;9.30;;
3547;SDS011;1788;49.400;11.092;2023-11-22T15:13:25;15.63;;;9.30;;
3547;SDS011;1788;49.400;11.092;2023-11-22T15:15:52;14.00;;;8.73;;